createdAt,value
2023-05-13T00:00:32.194Z,11.91
2023-05-13T00:03:34.977Z,11.87
2023-05-13T00:06:38.588Z,11.82
2023-05-13T00:09:41.300Z,11.81
2023-05-13T00:12:44.017Z,11.80
2023-05-13T00:15:46.852Z,11.78
2023-05-13T00:18:49.458Z,11.75
2023-05-13T00:21:53.042Z,11.77
2023-05-13T00:24:55.544Z,11.76
2023-05-13T00:27:59.254Z,11.74
2023-05-13T00:31:01.812Z,11.74
2023-05-13T00:34:04.439Z,11.74
2023-05-13T00:37:11.146Z,11.72
2023-05-13T00:40:21.024Z,11.75
2023-05-13T00:43:23.720Z,11.76
2023-05-13T00:46:32.295Z,11.70
2023-05-13T00:49:34.972Z,11.63
2023-05-13T00:52:39.495Z,11.68
2023-05-13T00:55:45.444Z,11.67
2023-05-13T00:58:48.678Z,11.62
2023-05-13T01:02:10.912Z,11.60
2023-05-13T01:05:47.727Z,11.56
2023-05-13T01:09:19.821Z,11.60
2023-05-13T01:12:31.105Z,11.62
2023-05-13T01:15:47.536Z,11.64
2023-05-13T01:18:55.655Z,11.60
2023-05-13T01:21:58.437Z,11.66
2023-05-13T01:25:01.192Z,11.68
2023-05-13T01:28:05.463Z,11.69
2023-05-13T01:31:11.054Z,11.66
2023-05-13T01:34:16.107Z,11.58
2023-05-13T01:37:19.860Z,11.63
2023-05-13T01:40:31.724Z,11.54
2023-05-13T01:43:41.701Z,11.57
2023-05-13T01:46:45.857Z,11.57
2023-05-13T01:49:48.746Z,11.53
2023-05-13T01:52:51.492Z,11.48
2023-05-13T01:55:54.703Z,11.58
2023-05-13T01:58:57.624Z,11.58
2023-05-13T02:02:00.646Z,11.60
2023-05-13T02:05:03.256Z,11.62
2023-05-13T02:08:07.732Z,11.64
2023-05-13T02:11:11.401Z,11.68
2023-05-13T02:14:13.888Z,11.66
2023-05-13T02:17:16.510Z,11.65
2023-05-13T02:20:19.585Z,11.61
2023-05-13T02:23:22.327Z,11.47
2023-05-13T02:26:24.955Z,11.43
2023-05-13T02:29:27.523Z,11.42
2023-05-13T02:32:30.129Z,11.40
2023-05-13T02:35:32.922Z,11.37
2023-05-13T02:38:37.080Z,11.33
2023-05-13T02:41:41.437Z,11.23
2023-05-13T02:44:44.384Z,11.19
2023-05-13T02:47:51.232Z,11.19
2023-05-13T02:50:53.894Z,11.17
2023-05-13T02:53:57.123Z,11.07
2023-05-13T02:57:01.562Z,11.11
2023-05-13T03:00:05.524Z,11.08
2023-05-13T03:03:09.178Z,11.08
2023-05-13T03:06:12.142Z,11.11
2023-05-13T03:09:14.716Z,11.08
2023-05-13T03:12:17.829Z,11.06
2023-05-13T03:15:22.379Z,11.06
2023-05-13T03:18:25.110Z,11.01
2023-05-13T03:21:28.878Z,11.04
2023-05-13T03:24:31.503Z,11.08
2023-05-13T03:27:35.798Z,11.08
2023-05-13T03:30:38.460Z,11.09
2023-05-13T03:33:46.461Z,11.10
2023-05-13T03:36:49.335Z,11.14
2023-05-13T03:39:53.611Z,11.18
2023-05-13T03:42:57.540Z,11.16
2023-05-13T03:46:00.726Z,11.23
2023-05-13T03:49:04.152Z,11.23
2023-05-13T03:52:10.005Z,11.27
2023-05-13T03:55:15.208Z,11.29
2023-05-13T03:58:18.608Z,11.28
2023-05-13T04:01:21.944Z,11.26
2023-05-13T04:04:24.627Z,11.32
2023-05-13T04:07:27.403Z,11.33
2023-05-13T04:10:29.896Z,11.36
2023-05-13T04:13:35.823Z,11.44
2023-05-13T04:16:38.435Z,11.46
2023-05-13T04:19:42.227Z,11.47
2023-05-13T04:22:44.823Z,11.45
2023-05-13T04:25:54.749Z,11.47
2023-05-13T04:28:57.716Z,11.51
2023-05-13T04:32:01.199Z,11.48
2023-05-13T04:35:04.681Z,11.48
2023-05-13T04:38:08.518Z,11.46
2023-05-13T04:41:11.406Z,11.51
2023-05-13T04:44:18.178Z,11.52
2023-05-13T04:47:21.089Z,11.55
2023-05-13T04:50:23.902Z,11.57
2023-05-13T04:53:27.339Z,11.63
2023-05-13T04:56:32.816Z,11.65
2023-05-13T04:59:35.473Z,11.71
2023-05-13T05:02:39.570Z,11.74
2023-05-13T05:05:42.148Z,11.79
2023-05-13T05:08:46.159Z,11.73
2023-05-13T05:11:50.688Z,11.79
2023-05-13T05:14:55.328Z,11.85
2023-05-13T05:17:58.381Z,11.92
2023-05-13T05:21:02.612Z,11.85
2023-05-13T05:24:06.966Z,11.79
2023-05-13T05:27:10.124Z,11.87
2023-05-13T05:30:13.636Z,11.91
2023-05-13T05:33:16.691Z,11.92
2023-05-13T05:36:19.715Z,11.96
2023-05-13T05:39:22.640Z,11.98
2023-05-13T05:42:26.087Z,12.01
2023-05-13T05:45:29.765Z,12.02
2023-05-13T05:48:34.489Z,12.10
2023-05-13T05:51:37.574Z,12.15
2023-05-13T05:54:41.660Z,12.23
2023-05-13T05:57:46.232Z,12.20
2023-05-13T06:00:48.928Z,12.22
2023-05-13T06:03:53.996Z,12.21
2023-05-13T06:06:57.692Z,12.17
2023-05-13T06:10:01.473Z,12.12
2023-05-13T06:13:04.718Z,12.13
2023-05-13T06:16:07.363Z,12.12
2023-05-13T06:19:10.338Z,12.25
2023-05-13T06:22:13.153Z,12.28
2023-05-13T06:25:15.860Z,12.22
2023-05-13T06:28:18.667Z,12.22
2023-05-13T06:31:21.200Z,12.22
2023-05-13T06:34:23.935Z,12.23
2023-05-13T06:37:26.821Z,12.30
2023-05-13T06:40:30.829Z,12.34
2023-05-13T06:43:34.133Z,12.43
2023-05-13T06:46:48.786Z,12.48
2023-05-13T06:49:51.606Z,12.45
2023-05-13T06:52:55.314Z,12.36
2023-05-13T06:55:58.142Z,12.48
2023-05-13T06:59:03.305Z,12.53
2023-05-13T07:02:09.838Z,12.53
2023-05-13T07:05:15.369Z,12.53
2023-05-13T07:08:19.062Z,12.56
2023-05-13T07:11:22.960Z,12.70
2023-05-13T07:14:26.474Z,12.79
2023-05-13T07:17:30.196Z,12.88
2023-05-13T07:20:33.486Z,12.66
2023-05-13T07:23:36.094Z,12.70
2023-05-13T07:26:41.069Z,12.72
2023-05-13T07:29:43.624Z,12.79
2023-05-13T07:32:47.154Z,12.91
2023-05-13T07:35:51.930Z,12.93
2023-05-13T07:38:54.461Z,12.93
2023-05-13T07:41:57.057Z,12.95
2023-05-13T07:45:00.218Z,12.93
2023-05-13T07:48:03.870Z,13.00
2023-05-13T07:51:07.534Z,12.89
2023-05-13T07:54:11.146Z,12.96
2023-05-13T07:57:14.753Z,12.93
2023-05-13T08:00:19.116Z,12.93
2023-05-13T08:03:21.923Z,13.00
2023-05-13T08:06:25.137Z,12.90
2023-05-13T08:09:28.201Z,12.79
2023-05-13T08:12:30.706Z,12.63
2023-05-13T08:15:33.337Z,12.57
2023-05-13T08:18:35.950Z,12.55
2023-05-13T08:21:38.644Z,12.54
2023-05-13T08:24:43.298Z,12.56
2023-05-13T08:27:46.055Z,12.59
2023-05-13T08:30:50.600Z,12.65
2023-05-13T08:33:54.293Z,12.63
2023-05-13T08:36:56.806Z,12.68
2023-05-13T08:40:01.757Z,12.67
2023-05-13T08:43:06.780Z,12.71
2023-05-13T08:46:11.154Z,12.76
2023-05-13T08:49:14.951Z,12.92
2023-05-13T08:52:19.016Z,13.16
2023-05-13T08:55:23.028Z,13.38
2023-05-13T08:58:25.990Z,13.60
2023-05-13T09:01:30.169Z,13.78
2023-05-13T09:04:37.789Z,13.84
2023-05-13T09:07:40.443Z,14.03
2023-05-13T09:10:42.981Z,14.53
2023-05-13T09:13:46.321Z,14.69
2023-05-13T09:16:49.354Z,14.84
2023-05-13T09:19:51.961Z,14.88
2023-05-13T09:22:58.022Z,15.04
2023-05-13T09:26:00.920Z,15.15
2023-05-13T09:29:16.773Z,15.49
2023-05-13T09:32:19.277Z,16.11
2023-05-13T09:35:26.328Z,16.04
2023-05-13T09:38:31.652Z,15.99
2023-05-13T09:41:35.148Z,16.17
2023-05-13T09:44:38.566Z,16.26
2023-05-13T09:47:43.096Z,16.02
2023-05-13T09:50:52.621Z,15.61
2023-05-13T09:53:56.452Z,15.60
2023-05-13T09:57:01.490Z,15.48
2023-05-13T10:00:17.784Z,15.48
2023-05-13T10:03:28.657Z,15.79
2023-05-13T10:06:31.288Z,16.08
2023-05-13T10:09:36.626Z,16.44
2023-05-13T10:12:41.659Z,16.15
2023-05-13T10:15:51.143Z,16.12
2023-05-13T10:18:54.361Z,15.91
2023-05-13T10:21:58.519Z,15.80
2023-05-13T10:25:03.978Z,15.93
2023-05-13T10:28:09.076Z,16.42
2023-05-13T10:31:11.708Z,16.16
2023-05-13T10:34:14.484Z,15.86
2023-05-13T10:37:28.141Z,15.81
2023-05-13T10:41:04.284Z,15.65
2023-05-13T10:44:09.881Z,15.58
2023-05-13T10:47:13.229Z,15.45
2023-05-13T10:50:25.621Z,15.66
2023-05-13T10:53:31.761Z,15.96
2023-05-13T10:56:35.139Z,15.95
2023-05-13T10:59:57.797Z,15.65
2023-05-13T11:03:20.064Z,15.38
2023-05-13T11:06:29.127Z,15.24
2023-05-13T11:09:31.710Z,15.21
2023-05-13T11:12:34.760Z,15.04
2023-05-13T11:15:46.257Z,14.92
2023-05-13T11:18:49.399Z,14.79
2023-05-13T11:21:55.181Z,14.78
2023-05-13T11:25:09.364Z,14.70
2023-05-13T11:28:18.670Z,14.71
2023-05-13T11:31:21.671Z,14.65
2023-05-13T11:34:25.153Z,14.59
2023-05-13T11:37:27.885Z,14.59
2023-05-13T11:40:35.396Z,14.62
2023-05-13T11:43:40.177Z,14.74
2023-05-13T11:46:55.352Z,15.00
2023-05-13T11:49:59.662Z,14.99
2023-05-13T11:53:02.774Z,14.97
2023-05-13T11:56:13.588Z,14.99
2023-05-13T11:59:16.248Z,14.82
2023-05-13T12:02:40.631Z,15.09
2023-05-13T12:05:44.660Z,15.18
2023-05-13T12:08:47.462Z,15.36
2023-05-13T12:11:53.091Z,15.57
2023-05-13T12:14:57.581Z,15.78
2023-05-13T12:18:01.675Z,15.89
2023-05-13T12:21:20.938Z,15.91
2023-05-13T12:24:23.665Z,16.03
2023-05-13T12:27:26.922Z,16.03
2023-05-13T12:30:35.149Z,16.06
2023-05-13T12:33:46.904Z,15.98
2023-05-13T12:36:49.562Z,15.85
2023-05-13T12:40:09.831Z,15.79
2023-05-13T12:43:13.363Z,15.82
2023-05-13T12:46:16.809Z,15.71
2023-05-13T12:49:19.366Z,15.55
2023-05-13T12:52:22.159Z,15.49
2023-05-13T12:55:29.243Z,15.63
2023-05-13T12:58:32.408Z,15.81
2023-05-13T13:01:36.025Z,16.09
2023-05-13T13:04:38.702Z,16.28
2023-05-13T13:07:42.376Z,16.17
2023-05-13T13:10:49.299Z,15.99
2023-05-13T13:13:52.227Z,15.83
2023-05-13T13:16:56.177Z,15.85
2023-05-13T13:19:58.851Z,15.99
2023-05-13T13:23:02.159Z,16.15
2023-05-13T13:26:04.944Z,16.21
2023-05-13T13:29:07.700Z,16.20
2023-05-13T13:32:13.081Z,16.16
2023-05-13T13:35:15.720Z,16.09
2023-05-13T13:38:18.548Z,15.91
2023-05-13T13:41:25.778Z,15.76
2023-05-13T13:44:29.601Z,15.72
2023-05-13T13:47:32.790Z,15.71
2023-05-13T13:50:35.489Z,15.68
2023-05-13T13:53:38.169Z,15.61
2023-05-13T13:56:40.931Z,15.71
2023-05-13T13:59:43.458Z,15.92
2023-05-13T14:02:46.158Z,15.95
2023-05-13T14:05:50.444Z,15.94
2023-05-13T14:08:52.970Z,15.87
2023-05-13T14:11:55.620Z,15.99
2023-05-13T14:14:59.161Z,16.14
2023-05-13T14:18:01.842Z,16.25
2023-05-13T14:21:04.655Z,16.21
2023-05-13T14:24:08.601Z,16.18
2023-05-13T14:27:11.205Z,16.24
2023-05-13T14:30:16.549Z,16.30
2023-05-13T14:33:20.408Z,16.32
2023-05-13T14:36:24.320Z,16.46
2023-05-13T14:39:27.010Z,16.48
2023-05-13T14:42:29.564Z,16.40
2023-05-13T14:45:32.135Z,16.23
2023-05-13T14:48:36.598Z,16.24
2023-05-13T14:51:39.091Z,16.08
2023-05-13T14:54:41.631Z,15.89
2023-05-13T14:57:45.795Z,15.80
2023-05-13T15:00:48.919Z,15.77
2023-05-13T15:03:51.502Z,15.72
2023-05-13T15:06:56.612Z,15.69
2023-05-13T15:09:59.134Z,15.74
2023-05-13T15:13:02.174Z,15.73
2023-05-13T15:16:05.170Z,15.70
2023-05-13T15:19:08.177Z,15.77
2023-05-13T15:22:10.847Z,15.88
2023-05-13T15:25:13.923Z,15.95
2023-05-13T15:28:16.494Z,16.08
2023-05-13T15:31:19.056Z,16.08
2023-05-13T15:34:21.789Z,16.06
2023-05-13T15:37:26.138Z,16.11
2023-05-13T15:40:28.678Z,16.10
2023-05-13T15:43:32.149Z,16.01
2023-05-13T15:46:37.262Z,15.91
2023-05-13T15:49:40.062Z,15.89
2023-05-13T15:52:42.708Z,15.75
2023-05-13T15:55:45.391Z,15.66
2023-05-13T15:58:48.815Z,15.58
2023-05-13T16:01:51.399Z,15.53
2023-05-13T16:04:53.920Z,15.47
2023-05-13T16:07:57.307Z,15.58
2023-05-13T16:10:59.880Z,15.56
2023-05-13T16:14:02.441Z,15.49
2023-05-13T16:17:05.156Z,15.46
2023-05-13T16:20:10.827Z,15.44
2023-05-13T16:23:14.197Z,15.38
2023-05-13T16:26:17.279Z,15.33
2023-05-13T16:29:21.080Z,15.30
2023-05-13T16:32:24.947Z,15.32
2023-05-13T16:35:27.749Z,15.27
2023-05-13T16:38:30.521Z,15.26
2023-05-13T16:41:35.472Z,15.28
2023-05-13T16:44:38.491Z,15.24
2023-05-13T16:47:41.095Z,15.20
2023-05-13T16:50:43.676Z,15.18
2023-05-13T16:53:46.211Z,15.15
2023-05-13T16:56:50.526Z,15.16
2023-05-13T16:59:53.166Z,15.09
2023-05-13T17:02:55.958Z,15.05
2023-05-13T17:05:58.946Z,15.06
2023-05-13T17:09:01.516Z,15.00
2023-05-13T17:12:04.837Z,15.02
2023-05-13T17:15:08.016Z,15.00
2023-05-13T17:18:10.611Z,14.98
2023-05-13T17:21:13.160Z,14.96
2023-05-13T17:24:15.723Z,14.95
2023-05-13T17:27:18.461Z,14.87
2023-05-13T17:30:21.269Z,14.83
2023-05-13T17:33:24.179Z,14.78
2023-05-13T17:36:26.826Z,14.71
2023-05-13T17:39:29.391Z,14.64
2023-05-13T17:42:33.090Z,14.58
2023-05-13T17:45:36.010Z,14.55
2023-05-13T17:48:38.920Z,14.52
2023-05-13T17:51:42.224Z,14.48
2023-05-13T17:54:46.126Z,14.44
2023-05-13T17:57:48.769Z,14.45
2023-05-13T18:00:51.363Z,14.46
2023-05-13T18:03:55.579Z,14.47
2023-05-13T18:07:00.777Z,14.45
2023-05-13T18:10:03.583Z,14.42
2023-05-13T18:13:06.316Z,14.42
2023-05-13T18:16:10.383Z,14.42
2023-05-13T18:19:13.154Z,14.35
2023-05-13T18:22:15.811Z,14.31
2023-05-13T18:25:19.644Z,14.21
2023-05-13T18:28:22.724Z,14.13
2023-05-13T18:31:25.635Z,14.13
2023-05-13T18:34:28.756Z,14.15
2023-05-13T18:37:31.637Z,14.13
2023-05-13T18:40:34.176Z,14.04
2023-05-13T18:43:36.831Z,14.07
2023-05-13T18:46:39.576Z,14.09
2023-05-13T18:49:43.633Z,14.07
2023-05-13T18:52:48.277Z,14.05
2023-05-13T18:55:51.273Z,14.02
2023-05-13T18:58:54.826Z,13.94
2023-05-13T19:01:59.233Z,13.97
2023-05-13T19:05:04.539Z,13.95
2023-05-13T19:08:08.405Z,13.95
2023-05-13T19:11:13.803Z,13.88
2023-05-13T19:14:18.495Z,13.92
2023-05-13T19:17:26.254Z,13.85
2023-05-13T19:20:31.067Z,13.85
2023-05-13T19:23:34.985Z,13.85
2023-05-13T19:26:39.819Z,13.84
2023-05-13T19:29:44.847Z,13.85
2023-05-13T19:32:49.204Z,13.76
2023-05-13T19:35:52.931Z,13.82
2023-05-13T19:39:03.111Z,13.72
2023-05-13T19:42:09.588Z,13.69
2023-05-13T19:45:13.640Z,13.73
2023-05-13T19:48:17.484Z,13.68
2023-05-13T19:51:22.585Z,13.65
2023-05-13T19:54:26.235Z,13.53
2023-05-13T19:57:30.160Z,13.39
2023-05-13T20:00:34.097Z,13.26
2023-05-13T20:03:37.801Z,13.25
2023-05-13T20:06:41.573Z,13.28
2023-05-13T20:09:46.637Z,13.25
2023-05-13T20:12:50.399Z,13.16
2023-05-13T20:15:54.275Z,12.94
2023-05-13T20:18:58.227Z,12.98
2023-05-13T20:22:03.572Z,12.91
2023-05-13T20:25:08.163Z,12.82
2023-05-13T20:28:12.583Z,12.73
2023-05-13T20:31:17.268Z,12.74
2023-05-13T20:34:21.099Z,12.74
2023-05-13T20:37:24.358Z,12.70
2023-05-13T20:40:29.294Z,12.66
2023-05-13T20:43:34.985Z,12.59
2023-05-13T20:46:39.024Z,12.54
2023-05-13T20:49:45.072Z,12.48
2023-05-13T20:52:47.588Z,12.45
2023-05-13T20:55:50.932Z,12.35
2023-05-13T20:58:54.626Z,12.39
2023-05-13T21:01:57.833Z,12.37
2023-05-13T21:05:00.578Z,12.39
2023-05-13T21:08:03.678Z,12.37
2023-05-13T21:11:07.121Z,12.42
2023-05-13T21:14:09.899Z,12.47
2023-05-13T21:17:12.395Z,12.52
2023-05-13T21:20:15.025Z,12.55
2023-05-13T21:23:19.393Z,12.52
2023-05-13T21:26:25.007Z,12.56
2023-05-13T21:29:29.511Z,12.55
2023-05-13T21:32:32.719Z,12.57
2023-05-13T21:35:35.582Z,12.54
2023-05-13T21:38:39.643Z,12.55
2023-05-13T21:41:42.300Z,12.53
2023-05-13T21:44:45.362Z,12.52
2023-05-13T21:47:49.812Z,12.48
2023-05-13T21:50:53.394Z,12.48
2023-05-13T21:53:56.000Z,12.47
2023-05-13T21:56:58.536Z,12.46
2023-05-13T22:00:01.127Z,12.46
2023-05-13T22:03:04.129Z,12.40
2023-05-13T22:06:07.195Z,12.42
2023-05-13T22:09:09.977Z,12.44
2023-05-13T22:12:12.521Z,12.40
2023-05-13T22:15:15.787Z,12.41
2023-05-13T22:18:18.530Z,12.46
2023-05-13T22:21:21.296Z,12.46
2023-05-13T22:24:23.778Z,12.49
2023-05-13T22:27:26.274Z,12.52
2023-05-13T22:30:28.856Z,12.54
2023-05-13T22:33:31.982Z,12.56
2023-05-13T22:36:34.651Z,12.58
2023-05-13T22:39:37.380Z,12.66
2023-05-13T22:42:40.994Z,12.69
2023-05-13T22:45:44.783Z,12.71
2023-05-13T22:48:47.436Z,12.73
2023-05-13T22:51:50.058Z,12.80
2023-05-13T22:54:52.579Z,12.88
2023-05-13T22:57:55.078Z,12.91
2023-05-13T23:00:57.701Z,12.95
2023-05-13T23:04:00.697Z,12.96
2023-05-13T23:07:04.065Z,13.00
2023-05-13T23:10:07.239Z,13.02
2023-05-13T23:13:09.922Z,13.05
2023-05-13T23:16:12.613Z,13.08
2023-05-13T23:19:15.223Z,13.07
2023-05-13T23:22:18.162Z,12.97
2023-05-13T23:25:21.670Z,13.09
2023-05-13T23:28:24.331Z,13.09
2023-05-13T23:31:27.256Z,12.97
2023-05-13T23:34:30.014Z,13.09
2023-05-13T23:37:32.619Z,13.09
2023-05-13T23:40:35.192Z,13.16
2023-05-13T23:43:38.183Z,13.17
2023-05-13T23:46:40.979Z,13.16
2023-05-13T23:49:43.570Z,13.16
2023-05-13T23:52:51.278Z,13.19
2023-05-13T23:55:53.867Z,13.10
2023-05-13T23:58:57.910Z,13.16
